Noaa Gloria Michelle — KJLW — position and weather

sailwx.info

Track history (hours):
 
Tides and Currents Weather Stations Pressure Air Temp Water Temp Dewpoint Dewpoint Depression Visibility Wind Speed Wind Dir Waves Ship Positions

Noaa Gloria Michelle

Last reported at 2016-May-15 10:30 UTC. Time now 2016-May-27 14:10 UTC.
Position N 42°21' W 070°39'.
Warning: this ship's position is 12 days out of date.

; draft 3 m.

Type: Fishing. MMSI: 338066383.

Date/timePositionNaut miles runAvg speedWind from/ knotsBaromVisibWave heightAir tempDewpointWater temp
2016-May-15 10:30N 42°21' W 070°39'8 8.6
2016-May-15 09:33N 42°29' W 070°40'7 7.2
2016-May-15 08:33N 42°37' W 070°40'0 0.0
2016-May-15 07:31N 42°37' W 070°40'0 0.0
2016-May-15 06:31N 42°37' W 070°40'0 0.0
2016-May-15 05:31N 42°37' W 070°40'0 0.0
2016-May-15 04:31N 42°37' W 070°40'0 0.0
2016-May-15 03:31N 42°37' W 070°40'0 0.0
2016-May-15 02:28N 42°37' W 070°40'0 0.0
2016-May-15 01:28N 42°37' W 070°40'0 0.0
2016-May-15 00:28N 42°37' W 070°40'0 0.0
2016-May-14 23:31N 42°37' W 070°40'0 0.0
2016-May-14 22:31N 42°37' W 070°40'0 0.0
2016-May-14 21:28N 42°37' W 070°40'0 0.0
2016-May-14 20:22N 42°37' W 070°40'0 0.0
2016-May-14 19:28N 42°37' W 070°40'0 0.0
2016-May-14 18:28N 42°37' W 070°40'0 0.0
2016-May-14 17:33N 42°37' W 070°40'4 4.1
2016-May-14 16:33N 42°38' W 070°34'6 5.6
2016-May-14 15:33N 42°43' W 070°33'1 1.2
2016-May-14 14:33N 42°43' W 070°35'1 1.3
2016-May-14 13:33N 42°42' W 070°36'0 0.4
2016-May-14 12:33N 42°43' W 070°36'4 4.0
2016-May-14 11:33N 42°40' W 070°33'4 3.6
2016-May-14 10:33N 42°37' W 070°36'3 2.9
2016-May-14 09:33N 42°37' W 070°40'0 0.0
2016-May-14 08:33N 42°37' W 070°40'0 0.0
2016-May-14 07:33N 42°37' W 070°40'0 0.0
2016-May-14 06:27N 42°37' W 070°40'0 0.0
2016-May-14 05:27N 42°37' W 070°40'0 0.0
2016-May-14 04:33N 42°37' W 070°40'0 0.0
2016-May-14 03:33N 42°37' W 070°40'0 0.0
2016-May-14 02:33N 42°37' W 070°40'0 0.0
2016-May-14 01:27N 42°37' W 070°40'0 0.0
2016-May-14 00:33N 42°37' W 070°40'0 0.0
2016-May-13 23:33N 42°37' W 070°40'4 4.0
2016-May-13 22:33N 42°37' W 070°34'5 4.5
2016-May-13 21:33N 42°42' W 070°36'0 0.4
2016-May-13 20:33N 42°42' W 070°36'3 3.0
2016-May-13 19:33N 42°42' W 070°40'5 4.7
2016-May-13 18:33N 42°44' W 070°46'2 1.6
2016-May-13 17:33N 42°45' W 070°46'1 1.1
2016-May-13 16:33N 42°46' W 070°46'1 1.0
2016-May-13 15:33N 42°47' W 070°46'3 0.7
2016-May-13 11:33N 42°49' W 070°43'9 8.8
2016-May-13 10:33N 42°42' W 070°37'6 6.4
2016-May-13 09:33N 42°35' W 070°38'2 1.7
2016-May-13 08:31N 42°37' W 070°40'0 0.0
2016-May-13 07:28N 42°37' W 070°40'0 0.0
2016-May-13 06:31N 42°37' W 070°40'0 0.0
2016-May-13 05:31N 42°37' W 070°40'0 0.0
2016-May-13 04:34N 42°37' W 070°40'0 0.0
2016-May-13 03:28N 42°37' W 070°40'0 0.0
2016-May-13 02:34N 42°37' W 070°40'0 0.0
2016-May-13 01:28N 42°37' W 070°40'0 0.0
2016-May-13 00:33N 42°37' W 070°40'0 0.0
2016-May-12 23:34N 42°37' W 070°40'2 2.3
2016-May-12 22:33N 42°34' W 070°40'2 2.4
2016-May-12 21:33N 42°34' W 070°37'0 0.5
2016-May-12 20:33N 42°34' W 070°37'4 3.6
2016-May-12 19:33N 42°33' W 070°42'1 0.6
2016-May-12 18:33N 42°33' W 070°43'6 6.3
2016-May-12 17:33N 42°28' W 070°38'1 1.4
2016-May-12 16:32N 42°29' W 070°38'1 1.2
2016-May-12 15:33N 42°29' W 070°39'3 2.6
2016-May-12 14:33N 42°28' W 070°42'1 1.2
2016-May-12 13:33N 42°29' W 070°44'3 2.7
2016-May-12 12:33N 42°27' W 070°47'4 4.5
2016-May-12 11:33N 42°27' W 070°53'5 5.3
2016-May-12 10:33N 42°22' W 070°55'4 3.6
2016-May-12 09:31N 42°18' W 070°55'0 0.0
2016-May-12 08:31N 42°18' W 070°55'0 0.0
2016-May-12 07:31N 42°18' W 070°55'0 0.0
2016-May-12 06:31N 42°18' W 070°55'0 0.0
2016-May-12 05:31N 42°18' W 070°55'0 0.0
2016-May-12 04:28N 42°18' W 070°55'0 0.0
2016-May-12 01:04N 42°18' W 070°55'0 0.0
2016-May-12 00:28N 42°18' W 070°55'0 0.0
2016-May-11 23:28N 42°18' W 070°55'1 0.7
2016-May-11 22:33N 42°19' W 070°55'3 2.4
2016-May-11 21:24N 42°18' W 070°52'3 1.6
2016-May-11 19:33N 42°19' W 070°48'4 3.1
2016-May-11 18:18N 42°18' W 070°43'2 2.3
2016-May-11 17:33N 42°20' W 070°44'1 1.2
2016-May-11 16:32N 42°19' W 070°42'  
Track history (hours):
 
Tides and Currents Weather Stations Pressure Air Temp Water Temp Dewpoint Dewpoint Depression Visibility Wind Speed Wind Dir Waves Ship Positions

Noaa Gloria Michelle

Last reported at 2016-May-15 10:30 UTC. Time now 2016-May-27 14:10 UTC.
Position N 42°21' W 070°39'.
Warning: this ship's position is 12 days out of date.

; draft 3 m.

Type: Fishing. MMSI: 338066383.

Date/timePositionNaut miles runAvg speedWind from/ knotsBaromVisibWave heightAir tempDewpointWater temp
2016-May-15 10:30N 42°21' W 070°39'8 8.6
2016-May-15 09:33N 42°29' W 070°40'7 7.2
2016-May-15 08:33N 42°37' W 070°40'0 0.0
2016-May-15 07:31N 42°37' W 070°40'0 0.0
2016-May-15 06:31N 42°37' W 070°40'0 0.0
2016-May-15 05:31N 42°37' W 070°40'0 0.0
2016-May-15 04:31N 42°37' W 070°40'0 0.0
2016-May-15 03:31N 42°37' W 070°40'0 0.0
2016-May-15 02:28N 42°37' W 070°40'0 0.0
2016-May-15 01:28N 42°37' W 070°40'0 0.0
2016-May-15 00:28N 42°37' W 070°40'0 0.0
2016-May-14 23:31N 42°37' W 070°40'0 0.0
2016-May-14 22:31N 42°37' W 070°40'0 0.0
2016-May-14 21:28N 42°37' W 070°40'0 0.0
2016-May-14 20:22N 42°37' W 070°40'0 0.0
2016-May-14 19:28N 42°37' W 070°40'0 0.0
2016-May-14 18:28N 42°37' W 070°40'0 0.0
2016-May-14 17:33N 42°37' W 070°40'4 4.1
2016-May-14 16:33N 42°38' W 070°34'6 5.6
2016-May-14 15:33N 42°43' W 070°33'1 1.2
2016-May-14 14:33N 42°43' W 070°35'1 1.3
2016-May-14 13:33N 42°42' W 070°36'0 0.4
2016-May-14 12:33N 42°43' W 070°36'4 4.0
2016-May-14 11:33N 42°40' W 070°33'4 3.6
2016-May-14 10:33N 42°37' W 070°36'3 2.9
2016-May-14 09:33N 42°37' W 070°40'0 0.0
2016-May-14 08:33N 42°37' W 070°40'0 0.0
2016-May-14 07:33N 42°37' W 070°40'0 0.0
2016-May-14 06:27N 42°37' W 070°40'0 0.0
2016-May-14 05:27N 42°37' W 070°40'0 0.0
2016-May-14 04:33N 42°37' W 070°40'0 0.0
2016-May-14 03:33N 42°37' W 070°40'0 0.0
2016-May-14 02:33N 42°37' W 070°40'0 0.0
2016-May-14 01:27N 42°37' W 070°40'0 0.0
2016-May-14 00:33N 42°37' W 070°40'0 0.0
2016-May-13 23:33N 42°37' W 070°40'4 4.0
2016-May-13 22:33N 42°37' W 070°34'5 4.5
2016-May-13 21:33N 42°42' W 070°36'0 0.4
2016-May-13 20:33N 42°42' W 070°36'3 3.0
2016-May-13 19:33N 42°42' W 070°40'5 4.7
2016-May-13 18:33N 42°44' W 070°46'2 1.6
2016-May-13 17:33N 42°45' W 070°46'1 1.1
2016-May-13 16:33N 42°46' W 070°46'1 1.0
2016-May-13 15:33N 42°47' W 070°46'3 0.7
2016-May-13 11:33N 42°49' W 070°43'9 8.8
2016-May-13 10:33N 42°42' W 070°37'6 6.4
2016-May-13 09:33N 42°35' W 070°38'2 1.7
2016-May-13 08:31N 42°37' W 070°40'0 0.0
2016-May-13 07:28N 42°37' W 070°40'0 0.0
2016-May-13 06:31N 42°37' W 070°40'0 0.0
2016-May-13 05:31N 42°37' W 070°40'0 0.0
2016-May-13 04:34N 42°37' W 070°40'0 0.0
2016-May-13 03:28N 42°37' W 070°40'0 0.0
2016-May-13 02:34N 42°37' W 070°40'0 0.0
2016-May-13 01:28N 42°37' W 070°40'0 0.0
2016-May-13 00:33N 42°37' W 070°40'0 0.0
2016-May-12 23:34N 42°37' W 070°40'2 2.3
2016-May-12 22:33N 42°34' W 070°40'2 2.4
2016-May-12 21:33N 42°34' W 070°37'0 0.5
2016-May-12 20:33N 42°34' W 070°37'4 3.6
2016-May-12 19:33N 42°33' W 070°42'1 0.6
2016-May-12 18:33N 42°33' W 070°43'6 6.3
2016-May-12 17:33N 42°28' W 070°38'1 1.4
2016-May-12 16:32N 42°29' W 070°38'1 1.2
2016-May-12 15:33N 42°29' W 070°39'3 2.6
2016-May-12 14:33N 42°28' W 070°42'1 1.2
2016-May-12 13:33N 42°29' W 070°44'3 2.7
2016-May-12 12:33N 42°27' W 070°47'4 4.5
2016-May-12 11:33N 42°27' W 070°53'5 5.3
2016-May-12 10:33N 42°22' W 070°55'4 3.6
2016-May-12 09:31N 42°18' W 070°55'0 0.0
2016-May-12 08:31N 42°18' W 070°55'0 0.0
2016-May-12 07:31N 42°18' W 070°55'0 0.0
2016-May-12 06:31N 42°18' W 070°55'0 0.0
2016-May-12 05:31N 42°18' W 070°55'0 0.0
2016-May-12 04:28N 42°18' W 070°55'0 0.0
2016-May-12 01:04N 42°18' W 070°55'0 0.0
2016-May-12 00:28N 42°18' W 070°55'0 0.0
2016-May-11 23:28N 42°18' W 070°55'1 0.7
2016-May-11 22:33N 42°19' W 070°55'3 2.4
2016-May-11 21:24N 42°18' W 070°52'3 1.6
2016-May-11 19:33N 42°19' W 070°48'4 3.1
2016-May-11 18:18N 42°18' W 070°43'2 2.3
2016-May-11 17:33N 42°20' W 070°44'1 1.2
2016-May-11 16:32N 42°19' W 070°42'  

Dump ship's entire track history